Time;durP1;ratioP1;P1;durP2;ratioP2;P2;SDS_P1;SDS_P2;PMS_P1;PMS_P2;Temp;Humidity;BMP_temperature;BMP_pressure;BME280_temperature;BME280_humidity;BME280_pressure;Samples;Min_cycle;Max_cycle;Signal;HPM_P1;HPM_P2
2022/07/03 00:01:52;;;;;;;2.05;0.60;;;17.10;99.90;;;;;;5028687;28;20021;-72
2022/07/03 00:04:20;;;;;;;1.20;0.50;;;17.00;99.90;;;;;;5020069;28;20060;-72
2022/07/03 00:06:46;;;;;;;1.45;0.55;;;17.00;99.90;;;;;;5027534;28;20029;-73
2022/07/03 00:09:12;;;;;;;3.83;0.70;;;17.00;99.90;;;;;;5027325;28;20026;-73
2022/07/03 00:11:37;;;;;;;3.38;0.93;;;16.90;99.90;;;;;;5028368;28;20501;-72
2022/07/03 00:14:03;;;;;;;1.13;0.60;;;16.90;99.90;;;;;;5031973;28;20041;-73
2022/07/03 00:16:30;;;;;;;0.85;0.43;;;16.90;99.90;;;;;;5026977;28;20041;-73
2022/07/03 00:18:55;;;;;;;2.08;0.80;;;16.80;99.90;;;;;;5027577;28;20096;-73
2022/07/03 00:21:35;;;;;;;2.38;0.88;;;16.80;99.90;;;;;;5028202;28;20121;-72
2022/07/03 00:24:18;;;;;;;3.25;0.60;;;16.80;99.90;;;;;;5026439;28;20029;-73
2022/07/03 00:26:48;;;;;;;3.25;0.90;;;16.70;99.90;;;;;;5031017;28;20042;-73
2022/07/03 00:29:17;;;;;;;3.20;0.60;;;16.70;99.90;;;;;;5030874;28;20037;-72
2022/07/03 00:31:43;;;;;;;2.13;0.70;;;16.60;99.90;;;;;;5036791;28;20041;-72
2022/07/03 00:34:12;;;;;;;0.85;0.50;;;16.60;99.90;;;;;;5038759;28;20038;-71
2022/07/03 00:36:38;;;;;;;1.48;0.65;;;16.60;99.90;;;;;;5030230;28;20044;-71
2022/07/03 00:39:04;;;;;;;1.70;0.65;;;16.50;99.90;;;;;;5032521;28;20033;-71
2022/07/03 00:41:32;;;;;;;4.88;0.82;;;16.50;99.90;;;;;;5031666;28;20037;-72
2022/07/03 00:43:58;;;;;;;1.92;0.70;;;16.50;99.90;;;;;;5041041;28;20048;-72
2022/07/03 00:46:25;;;;;;;1.67;0.40;;;16.40;99.90;;;;;;5042844;28;20032;-72
2022/07/03 00:48:53;;;;;;;6.20;0.85;;;16.40;99.90;;;;;;5043656;28;20034;-72
2022/07/03 00:51:24;;;;;;;2.45;0.88;;;16.40;99.90;;;;;;5036000;28;20421;-70
2022/07/03 00:53:52;;;;;;;4.43;0.80;;;16.30;99.90;;;;;;5028602;28;20044;-72
2022/07/03 00:56:27;;;;;;;2.28;1.08;;;16.30;99.90;;;;;;5031593;28;20033;-72
2022/07/03 00:58:55;;;;;;;3.47;0.85;;;16.30;99.90;;;;;;5029518;28;20042;-70
2022/07/03 01:01:23;;;;;;;1.42;0.73;;;16.30;99.90;;;;;;5029956;28;20117;-72
2022/07/03 01:04:02;;;;;;;3.67;1.05;;;16.30;99.90;;;;;;5031225;28;20036;-72
2022/07/03 01:06:34;;;;;;;2.00;0.82;;;16.30;99.90;;;;;;5029297;28;20038;-73
2022/07/03 01:09:03;;;;;;;2.22;1.20;;;16.20;99.90;;;;;;5031976;28;20033;-73
2022/07/03 01:11:38;;;;;;;3.42;1.45;;;16.20;99.90;;;;;;5029403;28;20160;-72
2022/07/03 01:14:07;;;;;;;1.98;0.93;;;16.20;99.90;;;;;;5034927;28;20033;-70
2022/07/03 01:16:51;;;;;;;4.50;1.00;;;16.30;99.90;;;;;;5031096;28;20065;-73
2022/07/03 01:19:32;;;;;;;2.88;0.88;;;16.30;99.90;;;;;;5031466;28;20041;-72
2022/07/03 01:22:19;;;;;;;2.35;0.90;;;16.30;99.90;;;;;;5030306;28;20032;-73
2022/07/03 01:25:19;;;;;;;1.98;1.10;;;16.40;99.90;;;;;;5027826;28;20076;-73
2022/07/03 01:28:08;;;;;;;1.70;0.85;;;16.40;99.90;;;;;;5025711;28;20091;-74
2022/07/03 01:30:52;;;;;;;2.55;1.25;;;16.40;99.90;;;;;;5036307;28;20092;-71
2022/07/03 01:33:22;;;;;;;2.38;1.02;;;16.40;99.90;;;;;;5026416;28;20053;-74
2022/07/03 01:36:08;;;;;;;2.72;0.98;;;16.30;99.90;;;;;;5031255;28;20733;-73
2022/07/03 01:38:35;;;;;;;2.15;1.20;;;16.20;99.90;;;;;;5030289;28;20033;-74
2022/07/03 01:41:03;;;;;;;6.05;0.98;;;16.20;99.90;;;;;;5031444;28;20037;-73
2022/07/03 01:43:31;;;;;;;2.33;1.10;;;16.20;99.90;;;;;;5030073;28;20041;-74
2022/07/03 01:45:59;;;;;;;1.25;0.98;;;16.10;99.90;;;;;;5030880;28;20099;-71
2022/07/03 01:48:25;;;;;;;4.30;1.00;;;16.10;99.90;;;;;;5030028;28;20156;-73
2022/07/03 01:50:51;;;;;;;3.63;1.63;;;16.00;99.90;;;;;;5029303;28;20585;-73
2022/07/03 01:53:17;;;;;;;2.00;1.15;;;16.00;99.90;;;;;;5033673;28;20053;-73
2022/07/03 01:55:44;;;;;;;2.53;1.30;;;16.00;99.90;;;;;;5037210;28;20026;-72
2022/07/03 01:58:11;;;;;;;3.40;1.35;;;16.00;99.90;;;;;;5036890;28;20029;-74
2022/07/03 02:00:50;;;;;;;2.85;1.75;;;16.00;99.90;;;;;;5028187;28;20048;-72
2022/07/03 02:03:27;;;;;;;3.15;1.33;;;16.00;99.90;;;;;;5024750;28;20068;-72
2022/07/03 02:06:02;;;;;;;3.70;1.20;;;15.90;99.90;;;;;;5028480;28;20406;-74
2022/07/03 02:08:44;;;;;;;5.40;1.65;;;16.00;99.90;;;;;;5029210;28;20030;-71
2022/07/03 02:11:11;;;;;;;4.38;1.15;;;15.90;99.90;;;;;;5029073;28;20037;-73
2022/07/03 02:13:52;;;;;;;3.55;1.45;;;15.90;99.90;;;;;;5032003;28;20060;-73
2022/07/03 02:16:22;;;;;;;1.80;0.98;;;15.90;99.90;;;;;;5026988;28;20577;-73
2022/07/03 02:19:17;;;;;;;3.63;1.70;;;15.90;99.90;;;;;;5030058;28;20034;-74
2022/07/03 02:21:54;;;;;;;3.83;1.60;;;15.90;99.90;;;;;;5023741;28;20029;-71
2022/07/03 02:24:25;;;;;;;5.43;1.80;;;15.90;99.90;;;;;;5026139;28;20409;-73
2022/07/03 02:27:04;;;;;;;5.15;1.52;;;16.00;99.90;;;;;;5031225;28;20032;-71
2022/07/03 02:29:49;;;;;;;4.90;1.60;;;16.10;99.90;;;;;;5029404;28;20037;-73
2022/07/03 02:32:21;;;;;;;3.80;1.50;;;16.10;99.90;;;;;;5037138;28;20037;-73
2022/07/03 02:34:57;;;;;;;4.18;1.50;;;16.10;99.90;;;;;;5040715;28;20026;-73
2022/07/03 02:37:27;;;;;;;5.20;1.95;;;16.20;99.90;;;;;;5032552;28;20040;-72
2022/07/03 02:40:26;;;;;;;6.25;2.30;;;16.20;99.90;;;;;;5030197;28;20544;-73
2022/07/03 02:43:12;;;;;;;3.88;1.77;;;16.20;99.90;;;;;;5026987;28;20029;-71
2022/07/03 02:46:48;;;;;;;8.50;1.83;;;16.20;99.90;;;;;;5027250;28;20425;-73
2022/07/03 02:48:54;;;;;;;2.92;1.80;;;16.20;99.90;;;;;;5026865;28;20037;-74
2022/07/03 02:51:23;;;;;;;3.70;1.88;;;16.20;99.90;;;;;;5028503;28;20041;-73
2022/07/03 02:54:01;;;;;;;6.50;1.48;;;16.30;99.90;;;;;;5027708;28;20110;-73
2022/07/03 02:56:46;;;;;;;4.88;1.45;;;16.30;99.90;;;;;;5028515;28;20563;-74
2022/07/03 02:59:14;;;;;;;4.30;1.80;;;16.30;99.90;;;;;;5033242;28;20084;-75
2022/07/03 03:01:54;;;;;;;3.10;2.15;;;16.30;99.90;;;;;;5024682;28;20037;-73
2022/07/03 03:04:29;;;;;;;2.90;1.30;;;16.30;99.90;;;;;;5023917;28;20116;-72
2022/07/03 03:07:01;;;;;;;2.40;1.17;;;16.30;99.90;;;;;;5028197;28;20044;-73
2022/07/03 03:09:34;;;;;;;6.38;1.30;;;16.30;99.90;;;;;;5024408;28;20063;-73
2022/07/03 03:12:05;;;;;;;5.28;1.30;;;16.20;99.90;;;;;;5028158;28;20045;-71
2022/07/03 03:14:56;;;;;;;7.07;1.83;;;16.20;99.90;;;;;;5030412;28;20038;-72
2022/07/03 03:17:25;;;;;;;3.80;1.30;;;16.10;99.90;;;;;;5033641;28;20037;-73
2022/07/03 03:19:54;;;;;;;2.92;1.52;;;16.10;99.90;;;;;;5034812;28;20060;-71
2022/07/03 03:22:44;;;;;;;3.42;1.52;;;16.00;99.90;;;;;;5030863;28;20037;-73
2022/07/03 03:25:10;;;;;;;5.63;1.80;;;16.00;99.90;;;;;;5024602;28;20106;-73
2022/07/03 03:27:35;;;;;;;3.13;1.65;;;16.00;99.90;;;;;;5028116;28;20085;-73
2022/07/03 03:30:01;;;;;;;2.38;0.98;;;16.00;99.90;;;;;;5026474;28;20048;-71
2022/07/03 03:32:27;;;;;;;3.55;1.75;;;15.90;99.90;;;;;;5027291;28;20033;-73
2022/07/03 03:34:53;;;;;;;4.70;1.45;;;15.90;99.90;;;;;;5028936;28;20064;-72
2022/07/03 03:37:19;;;;;;;2.15;1.38;;;15.80;99.90;;;;;;5027632;28;20134;-73
2022/07/03 03:39:45;;;;;;;2.85;1.38;;;15.80;99.90;;;;;;5025891;28;20030;-73
2022/07/03 03:42:11;;;;;;;6.22;1.80;;;15.80;99.90;;;;;;5027143;28;20026;-73
2022/07/03 03:44:36;;;;;;;4.13;1.42;;;15.80;99.90;;;;;;5026245;28;20036;-72
2022/07/03 03:47:02;;;;;;;3.38;1.42;;;15.90;99.90;;;;;;5027711;28;20117;-72
2022/07/03 03:49:29;;;;;;;4.22;1.27;;;15.90;99.90;;;;;;5025123;28;20053;-74
2022/07/03 03:51:55;;;;;;;4.82;1.20;;;15.90;99.90;;;;;;5029347;28;20033;-73
2022/07/03 03:54:20;;;;;;;1.83;1.20;;;15.90;99.90;;;;;;5026077;28;20048;-73
2022/07/03 03:56:46;;;;;;;4.80;1.30;;;15.90;99.90;;;;;;5027358;28;20029;-73
2022/07/03 03:59:12;;;;;;;3.92;1.33;;;16.00;99.90;;;;;;5028758;28;20033;-73
2022/07/03 04:01:37;;;;;;;4.07;1.38;;;16.00;99.90;;;;;;5026627;28;20135;-71
2022/07/03 04:04:03;;;;;;;4.53;0.98;;;16.00;99.90;;;;;;5027089;28;20038;-71
2022/07/03 04:06:29;;;;;;;2.17;0.70;;;16.10;99.90;;;;;;5026622;28;20077;-73
2022/07/03 04:08:54;;;;;;;2.20;0.73;;;16.10;99.90;;;;;;5028950;28;20041;-73
2022/07/03 04:11:20;;;;;;;0.70;0.45;;;16.20;99.90;;;;;;5028277;28;20116;-73
2022/07/03 04:13:45;;;;;;;1.52;0.80;;;16.20;99.90;;;;;;5035533;28;20037;-74
2022/07/03 04:16:11;;;;;;;3.08;1.35;;;16.20;99.90;;;;;;5043316;28;20036;-73
2022/07/03 04:18:37;;;;;;;6.40;0.98;;;16.30;99.90;;;;;;5041676;28;20041;-72
2022/07/03 04:21:03;;;;;;;4.47;0.80;;;16.30;99.90;;;;;;5043223;28;20056;-73
2022/07/03 04:23:29;;;;;;;2.92;0.80;;;16.30;99.90;;;;;;5032432;28;20065;-73
2022/07/03 04:25:54;;;;;;;3.67;0.85;;;16.30;99.90;;;;;;5033325;28;20037;-73
2022/07/03 04:28:20;;;;;;;5.57;0.80;;;16.30;99.90;;;;;;5030794;28;20059;-72
2022/07/03 04:30:46;;;;;;;1.60;0.60;;;16.40;99.90;;;;;;5032398;28;20033;-71
2022/07/03 04:33:11;;;;;;;2.58;0.75;;;16.40;99.90;;;;;;5030244;28;20029;-73
2022/07/03 04:35:40;;;;;;;3.72;0.88;;;16.40;99.90;;;;;;5030195;28;20080;-74
2022/07/03 04:38:06;;;;;;;3.83;0.60;;;16.40;99.90;;;;;;5036758;28;20043;-72
2022/07/03 04:40:31;;;;;;;1.42;0.85;;;16.40;99.90;;;;;;5038790;28;20085;-73
2022/07/03 04:42:57;;;;;;;1.08;0.50;;;16.40;99.90;;;;;;5035682;28;20038;-72
2022/07/03 04:45:22;;;;;;;4.30;0.68;;;16.50;99.90;;;;;;5032432;28;20029;-73
2022/07/03 04:47:48;;;;;;;1.63;0.88;;;16.50;99.90;;;;;;5030370;28;20496;-74
2022/07/03 04:50:14;;;;;;;1.92;0.60;;;16.60;99.90;;;;;;5031448;28;20053;-74
2022/07/03 04:52:39;;;;;;;1.85;0.60;;;16.70;99.90;;;;;;5030244;28;20782;-73
2022/07/03 04:55:06;;;;;;;4.07;0.70;;;16.80;99.90;;;;;;5032053;28;20116;-74
2022/07/03 04:57:31;;;;;;;6.28;0.80;;;16.90;99.90;;;;;;5038990;28;20036;-74
2022/07/03 04:59:57;;;;;;;3.22;0.40;;;17.00;99.90;;;;;;5042914;28;20025;-73
2022/07/03 05:02:22;;;;;;;0.63;0.20;;;17.00;99.90;;;;;;5040372;28;20083;-72
2022/07/03 05:04:48;;;;;;;1.63;0.60;;;17.00;99.90;;;;;;5042057;28;20030;-73
2022/07/03 05:07:13;;;;;;;1.45;0.60;;;17.10;99.90;;;;;;5036942;28;20060;-73
2022/07/03 05:09:39;;;;;;;4.45;0.47;;;17.10;99.90;;;;;;5035903;28;20022;-71
2022/07/03 05:12:05;;;;;;;1.63;0.47;;;17.10;99.90;;;;;;5032905;28;20033;-73
2022/07/03 05:14:31;;;;;;;1.42;0.40;;;17.10;99.90;;;;;;5028433;28;20125;-73
2022/07/03 05:16:56;;;;;;;3.38;0.60;;;17.10;99.90;;;;;;5030303;28;20549;-73
2022/07/03 05:19:22;;;;;;;3.75;0.30;;;17.10;99.90;;;;;;5030062;28;20083;-73
2022/07/03 05:21:47;;;;;;;1.90;0.55;;;17.10;99.90;;;;;;5029709;28;20038;-73
2022/07/03 05:24:13;;;;;;;2.78;0.80;;;17.20;99.90;;;;;;5030103;28;20133;-73
2022/07/03 05:26:38;;;;;;;2.90;0.30;;;17.20;99.90;;;;;;5033938;28;20206;-72
2022/07/03 05:29:04;;;;;;;1.70;0.98;;;17.30;99.90;;;;;;5030917;28;20034;-74
2022/07/03 05:31:30;;;;;;;5.40;0.90;;;17.30;99.90;;;;;;5029745;28;20034;-73
2022/07/03 05:33:55;;;;;;;2.85;0.30;;;17.40;99.90;;;;;;5030543;28;20040;-72
2022/07/03 05:36:21;;;;;;;4.63;0.60;;;17.30;99.90;;;;;;5028217;28;20041;-74
2022/07/03 05:41:30;;;;;;;3.25;0.40;;;17.40;99.90;;;;;;5026369;28;20099;-74
2022/07/03 05:43:57;;;;;;;3.45;0.40;;;17.50;99.90;;;;;;5029026;28;20456;-73
2022/07/03 05:46:23;;;;;;;9.70;1.10;;;17.70;99.90;;;;;;5029655;28;20041;-73
2022/07/03 05:48:48;;;;;;;2.53;0.65;;;18.00;99.90;;;;;;5029197;28;20180;-73
2022/07/03 05:51:14;;;;;;;5.40;0.73;;;18.10;99.90;;;;;;5030863;28;20029;-73
2022/07/03 05:53:39;;;;;;;2.67;0.30;;;18.20;99.90;;;;;;5029801;28;20113;-72
2022/07/03 05:56:05;;;;;;;3.17;0.73;;;18.30;99.90;;;;;;5030668;28;20081;-73
2022/07/03 05:58:30;;;;;;;2.40;0.52;;;18.40;99.90;;;;;;5029710;28;20034;-73
2022/07/03 06:00:56;;;;;;;2.85;0.40;;;18.90;99.90;;;;;;5032563;28;20045;-73
2022/07/03 06:03:21;;;;;;;1.65;0.40;;;19.20;99.90;;;;;;5029265;28;20052;-73
2022/07/03 06:05:47;;;;;;;3.78;0.47;;;19.40;99.90;;;;;;5033184;28;20041;-74
2022/07/03 06:08:13;;;;;;;3.35;0.50;;;19.80;99.90;;;;;;5032851;28;20508;-73
2022/07/03 06:10:38;;;;;;;4.63;0.82;;;20.00;99.90;;;;;;5031026;28;20099;-72
2022/07/03 06:13:04;;;;;;;1.30;0.35;;;19.90;99.90;;;;;;5029128;28;20025;-75
2022/07/03 06:15:29;;;;;;;2.80;1.10;;;19.70;99.90;;;;;;5027267;28;20041;-74
2022/07/03 06:17:55;;;;;;;2.72;0.55;;;19.60;99.90;;;;;;5030065;28;20033;-71
2022/07/03 06:20:20;;;;;;;3.08;0.50;;;19.80;99.90;;;;;;5028702;28;20043;-72
2022/07/03 06:22:46;;;;;;;3.47;0.50;;;20.10;99.90;;;;;;5027944;28;20049;-73
2022/07/03 06:25:12;;;;;;;4.45;0.32;;;20.10;99.90;;;;;;5033076;28;20044;-73
2022/07/03 06:27:38;;;;;;;3.75;0.75;;;20.10;99.90;;;;;;5028478;28;20486;-74
2022/07/03 06:30:04;;;;;;;4.88;0.93;;;20.10;99.90;;;;;;5029159;28;20746;-71
2022/07/03 06:32:29;;;;;;;8.75;0.80;;;19.90;99.90;;;;;;5026609;28;20038;-74
2022/07/03 06:34:55;;;;;;;3.38;1.20;;;20.00;99.90;;;;;;5023475;28;20036;-73
2022/07/03 06:37:21;;;;;;;2.63;0.98;;;20.20;99.90;;;;;;5028339;28;20029;-74
2022/07/03 06:39:47;;;;;;;6.28;0.70;;;20.40;99.90;;;;;;5029368;28;20029;-73
2022/07/03 06:42:13;;;;;;;6.68;0.77;;;20.60;99.90;;;;;;5029099;28;20094;-72
2022/07/03 06:44:39;;;;;;;9.75;1.23;;;20.50;99.90;;;;;;5027387;28;20044;-74
2022/07/03 06:47:04;;;;;;;6.18;1.00;;;20.80;99.90;;;;;;5027717;28;20060;-74
2022/07/03 06:49:34;;;;;;;5.15;0.77;;;21.00;99.90;;;;;;5026737;28;20100;-74
2022/07/03 06:51:59;;;;;;;2.73;0.60;;;21.00;99.90;;;;;;5027360;28;20505;-74
2022/07/03 06:54:25;;;;;;;3.20;0.68;;;21.10;99.90;;;;;;5026337;28;20284;-73
2022/07/03 06:56:51;;;;;;;2.95;0.63;;;21.30;99.90;;;;;;5027690;28;20422;-74
2022/07/03 06:59:16;;;;;;;1.55;0.63;;;21.40;99.90;;;;;;5027330;28;20129;-72
2022/07/03 07:01:42;;;;;;;5.65;1.00;;;21.70;99.90;;;;;;5028866;28;20033;-73
2022/07/03 07:04:08;;;;;;;1.90;0.40;;;21.90;99.90;;;;;;5028050;28;20660;-74
2022/07/03 07:06:34;;;;;;;3.63;0.93;;;22.20;99.90;;;;;;5028468;28;20043;-74
2022/07/03 07:08:59;;;;;;;3.47;0.75;;;22.50;99.90;;;;;;5027612;28;20036;-74
2022/07/03 07:11:25;;;;;;;3.67;0.63;;;22.90;99.90;;;;;;5028102;28;20378;-74
2022/07/03 07:13:50;;;;;;;2.85;0.70;;;23.60;99.90;;;;;;5025186;28;20041;-74
2022/07/03 07:16:16;;;;;;;3.25;0.93;;;24.10;99.90;;;;;;5028061;28;20040;-74
2022/07/03 07:18:43;;;;;;;5.70;0.90;;;24.60;99.90;;;;;;5028344;28;20112;-72
2022/07/03 07:21:09;;;;;;;6.45;0.77;;;25.10;99.90;;;;;;5028861;28;20029;-74
2022/07/03 07:23:35;;;;;;;4.15;0.63;;;25.30;99.90;;;;;;5027071;28;20071;-74
2022/07/03 07:26:01;;;;;;;1.65;0.30;;;25.60;99.90;;;;;;5039719;28;20041;-74
2022/07/03 07:28:30;;;;;;;2.05;0.60;;;25.90;99.90;;;;;;5037634;28;20101;-73
2022/07/03 07:30:57;;;;;;;3.15;0.70;;;26.30;99.90;;;;;;5035169;28;20045;-75
2022/07/03 07:33:23;;;;;;;2.92;1.08;;;26.80;99.90;;;;;;5033767;28;20041;-74
2022/07/03 07:35:49;;;;;;;5.40;1.23;;;27.50;98.80;;;;;;5030561;28;20042;-74
2022/07/03 07:38:15;;;;;;;6.18;0.98;;;28.30;98.40;;;;;;5029039;28;20026;-74
2022/07/03 07:40:40;;;;;;;3.45;0.82;;;29.20;98.00;;;;;;5027817;28;20021;-72
2022/07/03 07:43:06;;;;;;;6.05;1.10;;;29.40;94.50;;;;;;5028675;28;20037;-74
2022/07/03 07:45:31;;;;;;;1.88;0.63;;;29.50;95.20;;;;;;5027456;28;20029;-74
2022/07/03 07:47:57;;;;;;;4.47;1.20;;;30.50;92.80;;;;;;5030747;28;20044;-73
2022/07/03 07:50:23;;;;;;;2.08;0.65;;;30.40;90.70;;;;;;5029859;28;20446;-72
2022/07/03 07:52:48;;;;;;;2.78;0.70;;;30.30;91.00;;;;;;5032164;28;20096;-75
2022/07/03 07:55:14;;;;;;;5.20;0.90;;;29.70;90.70;;;;;;5032172;28;20034;-73
2022/07/03 07:57:40;;;;;;;2.90;0.95;;;28.70;91.90;;;;;;5036234;28;20108;-74
2022/07/03 08:00:06;;;;;;;4.85;1.10;;;28.90;91.70;;;;;;5037852;28;20085;-71
2022/07/03 08:08:06;;;;;;;3.67;0.43;;;26.50;92.60;;;;;;5030700;28;20056;-75
2022/07/03 08:10:37;;;;;;;8.07;0.90;;;25.70;93.90;;;;;;5030382;28;20045;-73
2022/07/03 08:13:03;;;;;;;2.80;0.40;;;25.00;94.50;;;;;;5034563;28;20543;-76
2022/07/03 08:15:28;;;;;;;0.90;0.28;;;24.90;95.50;;;;;;5030734;28;20029;-72
2022/07/03 08:17:54;;;;;;;4.85;0.68;;;24.90;95.10;;;;;;5030847;28;20580;-75
2022/07/03 08:20:19;;;;;;;1.30;0.32;;;25.00;95.70;;;;;;5031247;28;20091;-75
2022/07/03 08:22:45;;;;;;;1.23;0.45;;;25.70;94.90;;;;;;5031852;28;20112;-75
2022/07/03 08:25:10;;;;;;;4.82;0.60;;;25.90;94.50;;;;;;5032686;28;20021;-75
2022/07/03 08:27:36;;;;;;;2.17;0.30;;;25.70;94.10;;;;;;5029031;28;20030;-75
2022/07/03 08:30:03;;;;;;;3.50;0.95;;;25.10;94.70;;;;;;5030325;28;20112;-73
2022/07/03 08:32:28;;;;;;;2.20;0.52;;;24.50;95.30;;;;;;5029893;28;20037;-75
2022/07/03 08:34:54;;;;;;;3.20;0.50;;;23.90;96.50;;;;;;5029748;28;20508;-75
2022/07/03 08:37:19;;;;;;;2.80;0.70;;;23.40;97.20;;;;;;5030511;28;20040;-75
2022/07/03 08:39:45;;;;;;;6.50;0.60;;;23.30;97.40;;;;;;5030286;28;20063;-73
2022/07/03 08:42:15;;;;;;;3.05;0.20;;;23.20;97.50;;;;;;5029520;28;20123;-75
2022/07/03 08:44:42;;;;;;;2.15;0.52;;;23.00;98.10;;;;;;5030440;28;20101;-75
2022/07/03 08:47:08;;;;;;;0.77;0.28;;;23.20;98.50;;;;;;5027074;28;20037;-75
2022/07/03 08:49:34;;;;;;;3.25;0.38;;;23.30;98.30;;;;;;5030110;28;20498;-75
2022/07/03 08:52:01;;;;;;;2.45;0.50;;;23.50;98.00;;;;;;5030537;28;20033;-74
2022/07/03 08:54:26;;;;;;;1.92;0.40;;;23.60;98.00;;;;;;5027940;28;20068;-73
2022/07/03 08:56:52;;;;;;;5.38;0.50;;;23.80;97.80;;;;;;5031012;28;20491;-75
2022/07/03 08:59:20;;;;;;;2.65;0.90;;;23.90;97.60;;;;;;5032717;28;20025;-71
2022/07/03 09:01:46;;;;;;;2.08;0.30;;;24.10;98.00;;;;;;5034198;28;20037;-73
2022/07/03 09:04:15;;;;;;;1.52;0.50;;;24.50;97.50;;;;;;5031393;28;20033;-73
2022/07/03 09:06:42;;;;;;;1.80;0.50;;;24.70;96.90;;;;;;5027436;28;20026;-74
2022/07/03 09:09:08;;;;;;;4.18;0.40;;;25.10;96.40;;;;;;5030760;28;20037;-74
2022/07/03 09:11:38;;;;;;;5.50;0.90;;;25.40;96.10;;;;;;5030021;28;20148;-73
2022/07/03 09:14:06;;;;;;;2.60;0.50;;;25.40;95.90;;;;;;5030033;28;20832;-74
2022/07/03 09:16:34;;;;;;;2.80;0.65;;;25.20;96.60;;;;;;5027979;28;20038;-74
2022/07/03 09:19:00;;;;;;;4.45;0.50;;;24.80;96.50;;;;;;5035894;28;20405;-73
2022/07/03 09:21:34;;;;;;;3.53;0.80;;;24.40;97.90;;;;;;5029266;28;20022;-74
2022/07/03 09:24:05;;;;;;;2.35;0.70;;;24.10;98.40;;;;;;5027717;28;20528;-72
2022/07/03 09:26:31;;;;;;;4.22;0.68;;;23.90;98.60;;;;;;5030398;28;20453;-75
2022/07/03 09:28:56;;;;;;;1.90;0.40;;;23.80;98.70;;;;;;5031651;28;20045;-73
2022/07/03 09:31:27;;;;;;;2.25;0.55;;;23.60;98.30;;;;;;5029241;28;20038;-70
2022/07/03 09:33:57;;;;;;;2.13;0.50;;;23.40;98.60;;;;;;5028792;28;20482;-74
2022/07/03 09:36:42;;;;;;;2.88;0.65;;;23.10;99.10;;;;;;5029277;28;20038;-74
2022/07/03 09:39:39;;;;;;;2.28;0.50;;;22.90;99.20;;;;;;5030242;28;20065;-74
2022/07/03 09:42:11;;;;;;;2.47;0.50;;;22.70;99.20;;;;;;5027455;28;20520;-73
2022/07/03 09:44:42;;;;;;;1.95;0.60;;;22.70;99.90;;;;;;5027917;28;20033;-75
2022/07/03 09:47:15;;;;;;;1.58;0.43;;;22.90;99.90;;;;;;5030058;28;20443;-74
2022/07/03 09:49:51;;;;;;;1.92;0.63;;;23.30;99.90;;;;;;5027762;28;20079;-75
2022/07/03 09:52:32;;;;;;;1.55;0.60;;;23.60;98.70;;;;;;5025967;28;20112;-71
2022/07/03 09:55:00;;;;;;;2.05;0.40;;;23.80;98.70;;;;;;5033373;28;20033;-74
2022/07/03 09:57:30;;;;;;;3.08;0.60;;;23.80;98.90;;;;;;5024084;28;20033;-74
2022/07/03 10:00:17;;;;;;;2.83;0.80;;;23.70;98.60;;;;;;5030406;28;20401;-74
2022/07/03 10:03:06;;;;;;;1.50;0.50;;;23.30;98.30;;;;;;5032461;28;20124;-72
2022/07/03 10:05:36;;;;;;;1.95;0.50;;;22.90;99.40;;;;;;5032361;28;20041;-72
2022/07/03 10:08:07;;;;;;;4.10;0.70;;;22.60;99.90;;;;;;5031128;28;20033;-70
2022/07/03 10:10:36;;;;;;;2.50;0.32;;;22.40;99.90;;;;;;5029492;28;20030;-69
2022/07/03 10:13:02;;;;;;;7.43;0.65;;;22.30;99.90;;;;;;5034114;28;20555;-70
2022/07/03 10:15:31;;;;;;;1.27;0.47;;;22.10;99.90;;;;;;5027186;28;20132;-72
2022/07/03 10:17:57;;;;;;;5.50;0.65;;;21.90;99.90;;;;;;5029499;28;20038;-72
2022/07/03 10:20:29;;;;;;;1.48;0.40;;;21.80;99.90;;;;;;5027501;28;20442;-70
2022/07/03 10:22:56;;;;;;;2.10;0.50;;;21.70;99.90;;;;;;5027502;28;20044;-72
2022/07/03 10:25:22;;;;;;;2.25;0.55;;;21.50;99.90;;;;;;5029935;28;20064;-72
2022/07/03 10:27:48;;;;;;;4.50;0.47;;;21.30;99.90;;;;;;5025856;28;20093;-72
2022/07/03 10:30:16;;;;;;;4.00;0.65;;;21.20;99.90;;;;;;5029679;28;20028;-72
2022/07/03 10:32:46;;;;;;;3.15;0.73;;;21.10;99.90;;;;;;5022531;28;20413;-72
2022/07/03 10:35:14;;;;;;;6.45;0.70;;;20.80;99.90;;;;;;5023813;28;20099;-73
2022/07/03 10:38:08;;;;;;;7.00;0.95;;;20.50;99.90;;;;;;5022336;28;20034;-74
2022/07/03 10:46:36;;;;;;;2.33;0.50;;;20.30;99.90;;;;;;5027091;28;20083;-73
2022/07/03 10:49:10;;;;;;;2.80;0.43;;;20.60;99.90;;;;;;5027825;28;20632;-73
2022/07/03 10:51:44;;;;;;;7.75;0.95;;;21.10;99.90;;;;;;5024380;28;20045;-74
2022/07/03 10:54:16;;;;;;;1.27;0.40;;;21.30;99.90;;;;;;5027197;28;20033;-74
2022/07/03 10:57:00;;;;;;;2.30;0.35;;;21.40;99.90;;;;;;5022961;28;20067;-74
2022/07/03 10:59:35;;;;;;;3.83;0.60;;;21.80;99.90;;;;;;5033034;28;20038;-72
2022/07/03 11:02:26;;;;;;;1.17;0.60;;;22.10;99.90;;;;;;5027231;28;20033;-72
2022/07/03 11:04:58;;;;;;;4.20;0.68;;;22.20;99.90;;;;;;5024164;28;20034;-72
2022/07/03 11:07:27;;;;;;;2.17;0.40;;;22.40;99.90;;;;;;5028254;28;20528;-70
2022/07/03 11:10:14;;;;;;;3.00;0.53;;;22.40;99.90;;;;;;5029036;28;20404;-71
2022/07/03 11:13:03;;;;;;;2.40;0.35;;;22.50;99.90;;;;;;5029697;28;20037;-72
2022/07/03 11:15:40;;;;;;;3.15;0.60;;;22.20;99.90;;;;;;5027781;28;20029;-72
2022/07/03 11:18:06;;;;;;;4.85;0.30;;;22.10;99.90;;;;;;5028892;28;20018;-71
2022/07/03 11:20:36;;;;;;;2.92;0.40;;;22.00;99.90;;;;;;5026127;28;20045;-70
2022/07/03 11:23:10;;;;;;;3.08;0.57;;;22.00;99.90;;;;;;5026014;28;20033;-69
2022/07/03 11:25:44;;;;;;;4.85;0.60;;;22.10;99.90;;;;;;5027899;28;20084;-72
2022/07/03 11:28:34;;;;;;;1.95;0.45;;;22.40;99.90;;;;;;5032210;28;20026;-72
2022/07/03 11:31:10;;;;;;;1.00;0.40;;;22.80;99.90;;;;;;5026647;28;20039;-72
2022/07/03 11:33:42;;;;;;;3.47;0.47;;;23.00;99.90;;;;;;5025506;28;20153;-72
2022/07/03 11:36:17;;;;;;;1.65;0.50;;;23.00;99.90;;;;;;5027138;28;20524;-72
2022/07/03 11:38:43;;;;;;;3.88;0.75;;;22.80;99.90;;;;;;5024099;28;20052;-72
2022/07/03 11:41:10;;;;;;;3.60;0.70;;;22.60;99.90;;;;;;5025095;28;20033;-70
2022/07/03 11:43:36;;;;;;;2.05;0.60;;;22.40;99.90;;;;;;5025731;28;20437;-72
2022/07/03 11:46:05;;;;;;;6.65;1.05;;;22.20;99.90;;;;;;5027170;28;20029;-72
2022/07/03 11:48:31;;;;;;;3.53;0.88;;;22.10;99.90;;;;;;5026232;28;20057;-72
2022/07/03 11:51:01;;;;;;;1.10;0.30;;;22.00;99.90;;;;;;5028551;28;20444;-72
2022/07/03 11:53:31;;;;;;;2.88;0.77;;;21.80;99.90;;;;;;5025398;28;20103;-72
2022/07/03 11:56:02;;;;;;;2.53;0.73;;;21.60;99.90;;;;;;5028644;28;20022;-72
2022/07/03 11:58:45;;;;;;;4.28;0.80;;;21.30;99.90;;;;;;5025896;28;20033;-71
2022/07/03 12:01:23;;;;;;;2.10;0.93;;;21.00;99.90;;;;;;5024824;28;20029;-69
2022/07/03 12:03:49;;;;;;;3.58;1.15;;;20.60;99.90;;;;;;5033024;28;20042;-72
2022/07/03 12:06:16;;;;;;;2.72;0.60;;;20.30;99.90;;;;;;5028823;28;20042;-75
2022/07/03 12:08:45;;;;;;;2.25;0.70;;;20.10;99.90;;;;;;5027976;28;20030;-72
2022/07/03 12:11:15;;;;;;;2.67;0.70;;;20.00;99.90;;;;;;5029711;28;20060;-71
2022/07/03 12:13:42;;;;;;;5.50;0.85;;;19.90;99.90;;;;;;5027824;28;20055;-73
2022/07/03 12:16:12;;;;;;;1.20;0.40;;;19.90;99.90;;;;;;5030768;28;20030;-74
2022/07/03 12:18:51;;;;;;;2.58;0.77;;;20.10;99.90;;;;;;5023411;28;20063;-75
2022/07/03 12:21:21;;;;;;;1.38;0.30;;;20.40;99.90;;;;;;5024560;28;20064;-75
2022/07/03 12:23:54;;;;;;;2.13;0.20;;;20.80;99.90;;;;;;5027202;28;20037;-72
2022/07/03 12:26:34;;;;;;;1.35;0.40;;;21.10;99.90;;;;;;5027562;28;20038;-73
2022/07/03 12:29:13;;;;;;;0.77;0.45;;;21.20;99.90;;;;;;5027865;28;20041;-74
2022/07/03 12:31:40;;;;;;;2.67;0.30;;;21.20;99.90;;;;;;5023359;28;20033;-74
2022/07/03 12:34:06;;;;;;;3.85;0.85;;;21.20;99.90;;;;;;5029178;28;20121;-73
2022/07/03 12:36:32;;;;;;;2.75;0.40;;;21.40;99.90;;;;;;5030468;28;20055;-73
2022/07/03 12:38:59;;;;;;;0.95;0.40;;;21.40;99.90;;;;;;5030264;28;20918;-71
2022/07/03 12:41:25;;;;;;;1.00;0.40;;;21.30;99.90;;;;;;5030110;28;20502;-71
2022/07/03 12:43:52;;;;;;;1.00;0.60;;;21.50;99.90;;;;;;5029756;28;20095;-72
2022/07/03 12:46:35;;;;;;;1.42;0.50;;;21.60;99.90;;;;;;5031141;28;20489;-70
2022/07/03 12:49:08;;;;;;;2.30;0.65;;;22.10;99.90;;;;;;5030057;28;20490;-70
2022/07/03 12:51:49;;;;;;;1.98;0.50;;;22.30;99.90;;;;;;5022435;28;20048;-71
2022/07/03 12:54:15;;;;;;;1.33;0.60;;;22.40;99.90;;;;;;5030207;28;20044;-72
2022/07/03 12:56:42;;;;;;;1.70;0.60;;;22.30;99.90;;;;;;5030247;28;20026;-72
2022/07/03 12:59:27;;;;;;;4.38;0.43;;;22.20;99.90;;;;;;5029828;28;20060;-72
2022/07/03 13:02:04;;;;;;;2.15;0.70;;;22.10;99.90;;;;;;5028145;28;20038;-72
2022/07/03 13:04:35;;;;;;;5.30;0.45;;;22.10;99.90;;;;;;5030140;28;20076;-71
2022/07/03 13:07:07;;;;;;;0.57;0.28;;;22.10;99.90;;;;;;5031012;28;20411;-73
2022/07/03 13:09:35;;;;;;;3.35;0.63;;;22.20;99.90;;;;;;5025723;28;20045;-72
2022/07/03 13:12:01;;;;;;;0.68;0.30;;;22.30;99.90;;;;;;5029438;28;20378;-72
2022/07/03 13:14:27;;;;;;;1.40;0.30;;;22.40;99.90;;;;;;5024757;28;20034;-71
2022/07/03 13:16:54;;;;;;;0.95;0.17;;;22.20;99.90;;;;;;5030188;28;20044;-71